sensor_id;sensor_type;location;lat;lon;timestamp;pressure;altitude;pressure_sealevel;temperature;humidity
45937;BME280;31649;46.510;6.498;2023-04-28T07:31:19;95470.94;;;7.51;57.98
45937;BME280;31649;46.510;6.498;2023-04-28T07:33:46;95473.75;;;7.78;57.59
45937;BME280;31649;46.510;6.498;2023-04-28T07:36:11;95474.41;;;7.90;57.58
45937;BME280;31649;46.510;6.498;2023-04-28T07:38:37;95476.00;;;8.11;57.84
45937;BME280;31649;46.510;6.498;2023-04-28T07:41:03;95470.81;;;8.11;57.80
45937;BME280;31649;46.510;6.498;2023-04-28T07:43:29;95447.59;;;8.19;58.02
45937;BME280;31649;46.510;6.498;2023-04-28T07:45:55;95447.81;;;8.26;58.24
45937;BME280;31649;46.510;6.498;2023-04-28T07:48:21;95451.06;;;8.38;57.33
45937;BME280;31649;46.510;6.498;2023-04-28T07:50:46;95451.72;;;8.40;57.85
45937;BME280;31649;46.510;6.498;2023-04-28T07:53:12;95457.28;;;8.45;57.37
45937;BME280;31649;46.510;6.498;2023-04-28T07:55:38;95452.06;;;8.27;58.11
45937;BME280;31649;46.510;6.498;2023-04-28T07:58:06;95460.94;;;8.53;57.70
45937;BME280;31649;46.510;6.498;2023-04-28T08:00:32;95447.97;;;8.53;56.64
45937;BME280;31649;46.510;6.498;2023-04-28T08:02:57;95449.03;;;8.60;57.56
45937;BME280;31649;46.510;6.498;2023-04-28T08:05:23;95450.38;;;8.64;57.41
45937;BME280;31649;46.510;6.498;2023-04-28T08:07:49;95450.19;;;8.76;57.31
45937;BME280;31649;46.510;6.498;2023-04-28T08:10:14;95441.00;;;8.81;57.83
45937;BME280;31649;46.510;6.498;2023-04-28T08:12:40;95452.47;;;8.79;57.68
45937;BME280;31649;46.510;6.498;2023-04-28T08:15:06;95442.25;;;8.96;57.85
45937;BME280;31649;46.510;6.498;2023-04-28T08:17:31;95443.91;;;8.97;57.44
45937;BME280;31649;46.510;6.498;2023-04-28T08:19:57;95441.81;;;9.19;58.13
45937;BME280;31649;46.510;6.498;2023-04-28T08:22:23;95440.63;;;9.31;57.68
45937;BME280;31649;46.510;6.498;2023-04-28T08:24:49;95436.41;;;9.30;57.89
45937;BME280;31649;46.510;6.498;2023-04-28T08:27:14;95432.75;;;9.23;58.30
45937;BME280;31649;46.510;6.498;2023-04-28T08:29:40;95420.16;;;9.28;57.37
45937;BME280;31649;46.510;6.498;2023-04-28T08:32:06;95430.00;;;9.24;58.26
45937;BME280;31649;46.510;6.498;2023-04-28T08:34:32;95419.13;;;9.21;57.06
45937;BME280;31649;46.510;6.498;2023-04-28T08:36:57;95421.19;;;9.35;56.35
45937;BME280;31649;46.510;6.498;2023-04-28T08:39:24;95400.13;;;9.38;56.43
45937;BME280;31649;46.510;6.498;2023-04-28T08:41:51;95401.13;;;9.46;56.62
45937;BME280;31649;46.510;6.498;2023-04-28T08:44:17;95393.50;;;9.44;56.39
45937;BME280;31649;46.510;6.498;2023-04-28T08:46:43;95410.00;;;9.61;56.64
45937;BME280;31649;46.510;6.498;2023-04-28T08:49:17;95412.34;;;9.73;56.47
45937;BME280;31649;46.510;6.498;2023-04-28T08:51:55;95418.63;;;9.70;56.55
45937;BME280;31649;46.510;6.498;2023-04-28T08:54:22;95412.66;;;9.70;55.48
45937;BME280;31649;46.510;6.498;2023-04-28T08:56:47;95410.31;;;9.58;55.49
45937;BME280;31649;46.510;6.498;2023-04-28T08:59:14;95407.38;;;9.88;55.82
45937;BME280;31649;46.510;6.498;2023-04-28T09:01:40;95407.13;;;9.73;56.69
45937;BME280;31649;46.510;6.498;2023-04-28T09:04:06;95401.72;;;9.66;56.25
45937;BME280;31649;46.510;6.498;2023-04-28T09:06:36;95393.91;;;9.84;55.78
45937;BME280;31649;46.510;6.498;2023-04-28T09:09:24;95394.38;;;9.53;56.97
45937;BME280;31649;46.510;6.498;2023-04-28T09:14:16;95398.06;;;9.05;57.57
45937;BME280;31649;46.510;6.498;2023-04-28T09:16:41;95394.91;;;8.93;57.77
45937;BME280;31649;46.510;6.498;2023-04-28T09:19:07;95399.72;;;8.88;57.96
45937;BME280;31649;46.510;6.498;2023-04-28T09:21:48;95391.56;;;8.83;58.22
45937;BME280;31649;46.510;6.498;2023-04-28T09:24:40;95392.66;;;8.80;58.13
45937;BME280;31649;46.510;6.498;2023-04-28T09:27:09;95388.63;;;8.78;57.83
45937;BME280;31649;46.510;6.498;2023-04-28T09:29:37;95380.28;;;8.74;58.10
45937;BME280;31649;46.510;6.498;2023-04-28T09:32:15;95382.09;;;8.74;58.02
45937;BME280;31649;46.510;6.498;2023-04-28T09:34:46;95391.22;;;8.78;58.14
45937;BME280;31649;46.510;6.498;2023-04-28T09:37:20;95383.44;;;8.78;57.99
45937;BME280;31649;46.510;6.498;2023-04-28T09:39:48;95388.63;;;8.78;58.10
45937;BME280;31649;46.510;6.498;2023-04-28T09:42:37;95389.88;;;8.74;58.02
45937;BME280;31649;46.510;6.498;2023-04-28T09:45:07;95395.84;;;8.74;58.10
45937;BME280;31649;46.510;6.498;2023-04-28T09:47:43;95396.09;;;8.81;57.72
45937;BME280;31649;46.510;6.498;2023-04-28T09:50:12;95390.38;;;8.77;57.97
45937;BME280;31649;46.510;6.498;2023-04-28T09:52:43;95380.25;;;8.84;57.50
45937;BME280;31649;46.510;6.498;2023-04-28T09:55:11;95370.97;;;8.81;57.63
45937;BME280;31649;46.510;6.498;2023-04-28T09:57:37;95364.97;;;8.81;57.80
45937;BME280;31649;46.510;6.498;2023-04-28T10:00:05;95366.06;;;8.78;57.82
45937;BME280;31649;46.510;6.498;2023-04-28T10:02:33;95373.25;;;8.85;57.64
45937;BME280;31649;46.510;6.498;2023-04-28T10:04:59;95364.00;;;8.82;57.72
45937;BME280;31649;46.510;6.498;2023-04-28T10:07:25;95360.81;;;8.88;57.66
45937;BME280;31649;46.510;6.498;2023-04-28T10:09:51;95366.38;;;8.93;57.91
45937;BME280;31649;46.510;6.498;2023-04-28T10:12:22;95360.28;;;8.85;57.57
45937;BME280;31649;46.510;6.498;2023-04-28T10:14:49;95362.53;;;8.79;57.60
45937;BME280;31649;46.510;6.498;2023-04-28T10:17:19;95354.75;;;8.79;57.57
45937;BME280;31649;46.510;6.498;2023-04-28T10:19:48;95361.19;;;8.75;57.75
45937;BME280;31649;46.510;6.498;2023-04-28T10:22:28;95354.75;;;8.79;57.78
45937;BME280;31649;46.510;6.498;2023-04-28T10:27:33;95350.66;;;8.77;57.72
45937;BME280;31649;46.510;6.498;2023-04-28T10:30:22;95352.16;;;8.79;57.77
45937;BME280;31649;46.510;6.498;2023-04-28T10:38:12;95326.66;;;8.75;58.14
45937;BME280;31649;46.510;6.498;2023-04-28T10:40:39;95314.19;;;8.78;58.01
45937;BME280;31649;46.510;6.498;2023-04-28T10:43:10;95305.81;;;8.85;58.20
45937;BME280;31649;46.510;6.498;2023-04-28T10:48:14;95295.09;;;8.79;57.98
45937;BME280;31649;46.510;6.498;2023-04-28T10:56:28;95309.78;;;8.70;58.28
45937;BME280;31649;46.510;6.498;2023-04-28T10:58:55;95320.13;;;8.70;58.28
45937;BME280;31649;46.510;6.498;2023-04-28T11:03:50;95326.16;;;8.71;58.32
45937;BME280;31649;46.510;6.498;2023-04-28T11:08:55;95311.25;;;8.73;58.42
45937;BME280;31649;46.510;6.498;2023-04-28T11:11:28;95305.25;;;8.73;58.44
45937;BME280;31649;46.510;6.498;2023-04-28T11:16:51;95324.44;;;8.80;58.16
45937;BME280;31649;46.510;6.498;2023-04-28T11:19:31;95326.66;;;8.75;58.29
45937;BME280;31649;46.510;6.498;2023-04-28T11:21:59;95319.97;;;8.72;58.54
45937;BME280;31649;46.510;6.498;2023-04-28T11:24:26;95300.38;;;8.69;58.63
45937;BME280;31649;46.510;6.498;2023-04-28T11:26:56;95299.56;;;8.69;58.50
45937;BME280;31649;46.510;6.498;2023-04-28T11:29:32;95297.63;;;8.71;58.63
45937;BME280;31649;46.510;6.498;2023-04-28T11:31:58;95301.38;;;8.77;58.86
45937;BME280;31649;46.510;6.498;2023-04-28T11:34:24;95314.06;;;8.80;59.08
45937;BME280;31649;46.510;6.498;2023-04-28T11:36:50;95318.59;;;8.78;58.97
45937;BME280;31649;46.510;6.498;2023-04-28T11:39:16;95314.34;;;8.77;59.11
45937;BME280;31649;46.510;6.498;2023-04-28T11:41:49;95329.91;;;8.77;59.20
45937;BME280;31649;46.510;6.498;2023-04-28T11:44:21;95322.81;;;8.79;59.16
45937;BME280;31649;46.510;6.498;2023-04-28T11:46:57;95313.75;;;8.83;59.42
45937;BME280;31649;46.510;6.498;2023-04-28T11:49:31;95314.19;;;8.78;59.30
45937;BME280;31649;46.510;6.498;2023-04-28T11:52:07;95315.19;;;8.77;58.86
45937;BME280;31649;46.510;6.498;2023-04-28T11:54:34;95316.66;;;8.80;59.61
45937;BME280;31649;46.510;6.498;2023-04-28T11:57:02;95318.72;;;8.94;60.37
45937;BME280;31649;46.510;6.498;2023-04-28T11:59:34;95324.47;;;9.07;59.47
45937;BME280;31649;46.510;6.498;2023-04-28T12:02:04;95333.75;;;9.09;60.36
45937;BME280;31649;46.510;6.498;2023-04-28T12:04:40;95345.41;;;9.32;59.52
45937;BME280;31649;46.510;6.498;2023-04-28T12:07:10;95344.13;;;9.36;59.57
45937;BME280;31649;46.510;6.498;2023-04-28T12:09:38;95352.31;;;9.23;60.86
45937;BME280;31649;46.510;6.498;2023-04-28T12:12:16;95351.91;;;9.36;61.56
45937;BME280;31649;46.510;6.498;2023-04-28T12:15:02;95343.25;;;9.27;61.90
45937;BME280;31649;46.510;6.498;2023-04-28T12:17:33;95345.91;;;9.35;61.60
45937;BME280;31649;46.510;6.498;2023-04-28T12:20:02;95345.34;;;9.23;61.98
45937;BME280;31649;46.510;6.498;2023-04-28T12:22:28;95346.22;;;9.32;63.03
45937;BME280;31649;46.510;6.498;2023-04-28T12:25:11;95344.94;;;9.36;62.79
45937;BME280;31649;46.510;6.498;2023-04-28T12:27:38;95354.97;;;9.31;62.20
45937;BME280;31649;46.510;6.498;2023-04-28T12:32:45;95351.13;;;9.17;63.03
45937;BME280;31649;46.510;6.498;2023-04-28T12:35:11;95355.81;;;9.13;64.06
45937;BME280;31649;46.510;6.498;2023-04-28T12:37:36;95356.44;;;9.07;62.99
45937;BME280;31649;46.510;6.498;2023-04-28T12:40:06;95349.59;;;9.06;64.44
45937;BME280;31649;46.510;6.498;2023-04-28T12:42:33;95344.41;;;9.06;65.16
45937;BME280;31649;46.510;6.498;2023-04-28T12:44:58;95342.78;;;9.05;65.41
45937;BME280;31649;46.510;6.498;2023-04-28T12:47:24;95339.06;;;9.08;65.99
